Time;durP1;ratioP1;P1;durP2;ratioP2;P2;SDS_P1;SDS_P2;PMS_P1;PMS_P2;Temp;Humidity;BMP_temperature;BMP_pressure;BME280_temperature;BME280_humidity;BME280_pressure;Samples;Min_cycle;Max_cycle;Signal;HPM_P1;HPM_P2
2022/07/20 00:01:48;;;;;;;6.93;2.20;;;;;;;27.46;42.44;101343.50;5116248;28;20043;-52
2022/07/20 00:04:18;;;;;;;7.70;2.38;;;;;;;27.48;42.80;101356.69;5116262;28;20422;-44
2022/07/20 00:06:46;;;;;;;7.60;2.28;;;;;;;27.41;43.03;101347.84;5116775;28;20019;-49
2022/07/20 00:12:02;;;;;;;5.93;1.83;;;;;;;27.15;43.69;101353.88;5112425;28;20039;-44
2022/07/20 00:14:31;;;;;;;7.10;2.33;;;;;;;27.12;43.61;101340.66;5117404;28;20468;-49
2022/07/20 00:16:59;;;;;;;7.18;2.30;;;;;;;27.10;43.76;101353.84;5098295;28;20020;-51
2022/07/20 00:19:28;;;;;;;8.25;1.95;;;;;;;27.10;43.67;101353.84;5099054;28;20016;-44
2022/07/20 00:21:58;;;;;;;9.57;2.85;;;;;;;27.30;43.44;101356.56;5116242;28;20095;-45
2022/07/20 00:24:26;;;;;;;7.85;2.17;;;;;;;27.30;43.46;101353.94;5116580;28;20023;-56
2022/07/20 00:26:55;;;;;;;6.97;2.03;;;;;;;27.17;43.85;101348.59;5116542;28;20060;-50
2022/07/20 00:29:23;;;;;;;6.13;1.77;;;;;;;27.18;43.78;101345.09;5115852;28;20028;-44
2022/07/20 00:31:52;;;;;;;6.90;2.13;;;;;;;27.20;43.64;101345.97;5116419;28;20020;-43
2022/07/20 00:34:21;;;;;;;7.35;2.45;;;;;;;27.09;43.82;101338.91;5115853;28;20023;-52
2022/07/20 00:36:49;;;;;;;7.82;2.10;;;;;;;27.04;44.15;101343.25;5097977;28;20474;-45
2022/07/20 00:39:18;;;;;;;5.78;1.85;;;;;;;27.14;43.92;101333.66;5115677;28;20036;-44
2022/07/20 00:41:46;;;;;;;7.93;2.15;;;;;;;27.26;43.34;101349.53;5098180;28;20032;-44
2022/07/20 00:44:14;;;;;;;6.38;2.15;;;;;;;27.33;43.19;101352.19;5097873;28;20019;-44
2022/07/20 00:46:45;;;;;;;8.02;2.05;;;;;;;27.35;43.17;101339.91;5115831;28;20019;-44
2022/07/20 00:49:14;;;;;;;9.05;2.40;;;;;;;27.42;42.92;101344.31;5081156;28;20095;-46
2022/07/20 00:51:44;;;;;;;5.90;2.00;;;;;;;27.48;42.71;101340.88;5098030;28;20466;-51
2022/07/20 00:54:14;;;;;;;5.63;1.90;;;;;;;27.41;42.71;101329.41;5115932;28;20046;-44
2022/07/20 00:56:43;;;;;;;6.53;2.00;;;;;;;27.42;42.73;101332.06;5097784;28;20031;-50
2022/07/20 00:59:12;;;;;;;6.03;2.10;;;;;;;27.56;42.39;101337.38;5097427;28;20038;-45
2022/07/20 01:01:43;;;;;;;5.70;2.03;;;;;;;27.38;43.05;101330.28;5115504;28;20089;-44
2022/07/20 01:04:12;;;;;;;8.43;2.35;;;;;;;27.35;43.26;101335.53;5115073;28;20027;-45
2022/07/20 01:06:41;;;;;;;8.20;1.65;;;;;;;27.39;43.15;101342.56;5115582;28;20366;-47
2022/07/20 01:09:08;;;;;;;6.28;2.05;;;;;;;27.48;42.74;101332.97;5115714;28;20068;-44
2022/07/20 01:11:37;;;;;;;6.20;2.22;;;;;;;27.52;42.79;101338.28;5115104;28;20027;-45
2022/07/20 01:14:08;;;;;;;5.93;1.52;;;;;;;27.52;42.70;101332.09;5115372;28;20059;-44
2022/07/20 01:16:37;;;;;;;7.43;1.75;;;;;;;27.54;42.66;101330.34;5115338;28;20027;-46
2022/07/20 01:19:06;;;;;;;7.65;2.08;;;;;;;27.49;43.01;101322.44;5080038;28;20093;-44
2022/07/20 01:21:40;;;;;;;8.15;2.10;;;;;;;27.42;43.40;101326.78;5115187;28;20496;-52
2022/07/20 01:24:10;;;;;;;6.17;1.90;;;;;;;27.53;42.68;101326.84;5115044;28;20027;-45
2022/07/20 01:26:41;;;;;;;4.95;1.50;;;;;;;27.51;42.74;101319.81;5114783;28;20032;-48
2022/07/20 01:29:11;;;;;;;6.40;1.90;;;;;;;27.44;43.14;101319.78;5096950;28;20024;-47
2022/07/20 01:31:40;;;;;;;6.88;2.10;;;;;;;27.57;42.57;101319.84;5114907;28;20036;-44
2022/07/20 01:34:08;;;;;;;4.35;1.50;;;;;;;27.55;42.52;101321.59;5114914;28;20023;-46
2022/07/20 01:36:37;;;;;;;5.20;1.45;;;;;;;27.50;42.68;101318.94;5114969;28;20028;-44
2022/07/20 01:39:05;;;;;;;4.97;1.60;;;;;;;27.57;42.56;101320.69;5114943;28;20053;-48
2022/07/20 01:41:34;;;;;;;4.15;1.48;;;;;;;27.58;42.45;101327.72;5114607;28;20483;-44
2022/07/20 01:44:02;;;;;;;4.75;1.80;;;;;;;27.58;42.39;101313.69;5114466;28;20031;-44
2022/07/20 01:46:31;;;;;;;8.65;2.13;;;;;;;27.59;42.66;101323.38;5114798;28;20032;-48
2022/07/20 01:48:58;;;;;;;3.65;1.75;;;;;;;27.55;42.72;101333.00;5114505;28;20028;-44
2022/07/20 01:51:26;;;;;;;7.13;2.10;;;;;;;27.64;42.48;101332.13;5096280;28;20030;-47
2022/07/20 01:53:55;;;;;;;5.15;1.70;;;;;;;27.51;43.01;101325.06;5115143;28;20376;-46
2022/07/20 01:56:23;;;;;;;9.02;2.05;;;;;;;27.53;42.62;101326.84;5113440;28;20024;-44
2022/07/20 01:58:52;;;;;;;5.30;1.98;;;;;;;27.55;42.57;101333.00;5114056;28;20020;-44
2022/07/20 02:01:20;;;;;;;5.20;1.80;;;;;;;27.61;42.68;101337.44;5113889;28;20059;-48
2022/07/20 02:03:49;;;;;;;5.32;1.75;;;;;;;27.58;42.54;101338.28;5114099;28;20103;-48
2022/07/20 02:06:17;;;;;;;6.25;1.80;;;;;;;27.60;42.44;101349.72;5114141;28;20106;-47
2022/07/20 02:08:46;;;;;;;4.72;1.77;;;;;;;27.71;42.28;101348.88;5113617;28;20027;-47
2022/07/20 02:11:14;;;;;;;6.40;1.70;;;;;;;27.80;42.07;101345.41;5095941;28;20439;-45
2022/07/20 02:13:43;;;;;;;4.95;1.63;;;;;;;27.69;42.29;101343.59;5114120;28;20034;-56
2022/07/20 02:16:15;;;;;;;4.53;1.70;;;;;;;27.62;42.56;101340.94;5113758;28;20050;-53
2022/07/20 02:18:46;;;;;;;7.32;1.80;;;;;;;27.53;42.79;101339.13;5114178;28;20035;-48
2022/07/20 02:21:16;;;;;;;8.07;2.55;;;;;;;27.50;42.89;101339.13;5113664;28;20129;-49
2022/07/20 02:23:45;;;;;;;5.25;1.65;;;;;;;27.51;42.75;101341.78;5113723;28;20034;-49
2022/07/20 02:26:14;;;;;;;4.93;1.70;;;;;;;27.58;42.52;101337.41;5114246;28;20046;-51
2022/07/20 02:28:43;;;;;;;6.38;1.85;;;;;;;27.57;42.67;101351.47;5113844;28;20431;-48
2022/07/20 02:31:11;;;;;;;5.90;2.05;;;;;;;27.54;42.54;101346.16;5114032;28;20409;-47
2022/07/20 02:33:40;;;;;;;6.80;1.80;;;;;;;27.52;42.38;101351.44;5113902;28;20098;-51
2022/07/20 02:36:08;;;;;;;5.72;1.75;;;;;;;27.48;42.44;101352.31;5113367;28;20031;-49
2022/07/20 02:38:36;;;;;;;5.22;1.67;;;;;;;27.51;42.52;101347.06;5113582;28;20447;-47
2022/07/20 02:41:05;;;;;;;3.50;1.50;;;;;;;27.59;42.29;101345.31;5113408;28;20114;-52
2022/07/20 02:43:34;;;;;;;4.53;1.50;;;;;;;27.50;42.34;101337.38;5113809;28;20501;-49
2022/07/20 02:46:03;;;;;;;4.32;1.75;;;;;;;27.42;42.73;101339.97;5113788;28;20459;-46
2022/07/20 02:48:31;;;;;;;6.47;2.13;;;;;;;27.40;42.89;101338.16;5113963;28;20024;-51
2022/07/20 02:50:59;;;;;;;8.43;2.40;;;;;;;27.39;42.72;101325.88;5113721;28;20103;-45
2022/07/20 02:53:28;;;;;;;5.05;1.60;;;;;;;27.39;42.85;101331.13;5113583;28;20435;-56
2022/07/20 02:55:57;;;;;;;5.63;1.90;;;;;;;27.35;42.95;101332.88;5113521;28;20154;-44
2022/07/20 02:58:25;;;;;;;4.43;1.63;;;;;;;27.43;42.78;101331.19;5113541;28;20111;-47
2022/07/20 03:00:54;;;;;;;5.20;1.60;;;;;;;27.46;42.44;101332.97;5113087;28;20524;-56
2022/07/20 03:03:22;;;;;;;5.22;1.55;;;;;;;27.52;42.61;101343.53;5112996;28;20467;-44
2022/07/20 03:05:51;;;;;;;5.53;1.55;;;;;;;27.48;42.57;101333.84;5113593;28;20493;-48
2022/07/20 03:08:19;;;;;;;5.82;1.70;;;;;;;27.53;42.32;101341.78;5118066;28;20027;-53
2022/07/20 03:10:48;;;;;;;4.32;1.42;;;;;;;27.51;42.37;101346.16;5117484;28;20541;-54
2022/07/20 03:13:15;;;;;;;3.92;1.52;;;;;;;27.47;42.39;101344.41;5117685;28;20137;-45
2022/07/20 03:15:44;;;;;;;4.18;1.63;;;;;;;27.47;42.26;101352.31;5117496;28;20031;-45
2022/07/20 03:18:12;;;;;;;4.18;1.65;;;;;;;27.40;42.56;101352.25;5117968;28;20431;-49
2022/07/20 03:20:41;;;;;;;4.82;1.60;;;;;;;27.41;42.24;101345.19;5116938;28;20020;-51
2022/07/20 03:23:09;;;;;;;6.10;1.83;;;;;;;27.53;41.92;101354.94;5117414;28;20077;-56
2022/07/20 03:25:38;;;;;;;5.38;1.50;;;;;;;27.44;42.09;101350.50;5116869;28;20053;-48
2022/07/20 03:28:06;;;;;;;5.25;1.30;;;;;;;27.42;42.14;101341.69;5117700;28;20039;-50
2022/07/20 03:30:35;;;;;;;5.15;1.70;;;;;;;27.27;42.41;101350.44;5117272;28;20031;-44
2022/07/20 03:33:04;;;;;;;6.90;1.75;;;;;;;27.23;42.32;101356.53;5117490;28;20028;-49
2022/07/20 03:35:32;;;;;;;6.75;1.70;;;;;;;27.09;42.17;101333.66;5116956;28;20031;-45
2022/07/20 03:38:01;;;;;;;4.55;1.30;;;;;;;27.21;41.73;101355.66;5099127;28;20022;-44
2022/07/20 03:40:30;;;;;;;3.00;1.55;;;;;;;27.24;42.07;101358.31;5098771;28;20436;-55
2022/07/20 03:42:58;;;;;;;3.97;1.67;;;;;;;27.24;41.90;101369.69;5117291;28;20015;-50
2022/07/20 03:45:27;;;;;;;3.10;1.35;;;;;;;27.29;41.63;101367.13;5117020;28;20028;-44
2022/07/20 03:47:55;;;;;;;2.15;1.30;;;;;;;27.20;41.70;101365.31;5117240;28;20015;-52
2022/07/20 03:50:24;;;;;;;4.55;1.83;;;;;;;27.18;41.74;101367.06;5117006;28;20114;-48
2022/07/20 03:52:53;;;;;;;2.55;1.25;;;;;;;27.17;41.57;101372.28;5116634;28;20031;-56
2022/07/20 03:55:21;;;;;;;4.35;1.40;;;;;;;27.14;41.60;101375.81;5116970;28;20027;-48
2022/07/20 03:57:50;;;;;;;4.70;2.20;;;;;;;27.12;41.63;101374.91;5081922;28;20062;-48
2022/07/20 04:00:19;;;;;;;3.80;1.60;;;;;;;27.11;42.06;101378.41;5116617;28;20047;-51
2022/07/20 04:02:47;;;;;;;3.60;1.35;;;;;;;27.01;41.94;101377.47;5116968;28;20104;-53
2022/07/20 04:05:16;;;;;;;4.55;1.50;;;;;;;27.09;41.63;101385.41;5116427;28;20092;-45
2022/07/20 04:07:44;;;;;;;4.10;1.55;;;;;;;27.10;41.59;101381.91;5116810;28;20020;-50
2022/07/20 04:10:13;;;;;;;3.38;1.30;;;;;;;27.15;41.47;101386.34;5116796;28;20050;-45
2022/07/20 04:12:42;;;;;;;3.55;1.33;;;;;;;27.20;41.22;101391.66;5116621;28;20045;-52
2022/07/20 04:15:09;;;;;;;1.98;1.13;;;;;;;27.20;41.26;101388.13;5116773;28;20099;-46
2022/07/20 04:17:41;;;;;;;4.35;1.40;;;;;;;27.11;40.96;101376.69;5115838;28;20099;-49
2022/07/20 04:20:10;;;;;;;4.30;1.50;;;;;;;27.23;41.04;101393.41;5116106;28;20034;-52
2022/07/20 04:22:40;;;;;;;5.30;2.00;;;;;;;27.22;41.19;101397.78;5098103;28;20024;-47
2022/07/20 04:25:09;;;;;;;4.07;1.38;;;;;;;27.23;41.07;101399.53;5116053;28;20055;-48
2022/07/20 04:27:37;;;;;;;3.70;1.52;;;;;;;27.17;41.18;101399.53;5116255;28;20023;-45
2022/07/20 04:30:06;;;;;;;5.47;1.50;;;;;;;27.09;41.26;101383.69;5116001;28;20038;-55
2022/07/20 04:32:34;;;;;;;3.13;1.20;;;;;;;27.15;41.28;101393.38;5116260;28;20027;-44
2022/07/20 04:35:02;;;;;;;4.40;1.10;;;;;;;27.14;41.14;101394.22;5116014;28;20110;-54
2022/07/20 04:37:30;;;;;;;5.70;1.30;;;;;;;27.10;41.17;101405.63;5116151;28;20024;-47
2022/07/20 04:39:59;;;;;;;3.70;1.42;;;;;;;27.03;41.39;101415.22;5115463;28;20028;-55
2022/07/20 04:42:27;;;;;;;4.72;1.60;;;;;;;26.99;41.29;101416.06;5116324;28;20106;-48
2022/07/20 04:44:56;;;;;;;4.07;1.33;;;;;;;27.03;41.20;101422.25;5115395;28;20102;-46
2022/07/20 04:47:24;;;;;;;4.10;1.38;;;;;;;27.07;41.50;101424.03;5115717;28;20035;-53
2022/07/20 04:49:53;;;;;;;5.38;1.83;;;;;;;27.03;41.29;101425.75;5097277;28;20051;-49
2022/07/20 04:52:21;;;;;;;2.42;1.20;;;;;;;27.05;41.17;101431.91;5115841;28;20554;-54
2022/07/20 04:54:49;;;;;;;4.88;1.30;;;;;;;27.11;41.02;101437.25;5115804;28;20467;-49
2022/07/20 04:57:17;;;;;;;2.45;0.82;;;;;;;27.07;41.16;101440.72;5115893;28;20378;-45
2022/07/20 04:59:46;;;;;;;4.65;1.27;;;;;;;26.98;41.27;101441.53;5115315;28;20028;-49
2022/07/20 05:02:14;;;;;;;3.15;1.20;;;;;;;26.97;41.36;101444.16;5115321;28;20063;-47
2022/07/20 05:04:42;;;;;;;1.30;1.02;;;;;;;26.99;41.25;101445.03;5115140;28;20500;-54
2022/07/20 05:07:11;;;;;;;4.72;1.60;;;;;;;26.96;41.45;101450.28;5115675;28;20027;-48
2022/07/20 05:09:39;;;;;;;2.53;1.45;;;;;;;27.02;41.17;101447.69;5114847;28;20131;-52
2022/07/20 05:12:08;;;;;;;4.22;1.48;;;;;;;27.01;41.49;101456.47;5115618;28;20515;-44
2022/07/20 05:14:37;;;;;;;6.18;1.88;;;;;;;26.98;41.58;101464.31;5115896;28;20377;-47
2022/07/20 05:17:05;;;;;;;5.85;1.55;;;;;;;27.03;41.46;101462.63;5115156;28;20028;-51
2022/07/20 05:19:33;;;;;;;8.52;2.45;;;;;;;27.08;41.35;101468.81;5097050;28;20081;-52
2022/07/20 05:22:02;;;;;;;29.25;5.20;;;;;;;27.11;41.39;101474.13;5115378;28;20031;-45
2022/07/20 05:24:30;;;;;;;14.88;2.67;;;;;;;26.98;41.74;101474.84;5096873;28;20027;-47
2022/07/20 05:26:59;;;;;;;17.02;2.60;;;;;;;27.04;41.48;101477.56;5115087;28;20119;-44
2022/07/20 05:29:27;;;;;;;14.07;2.45;;;;;;;27.07;41.76;101477.59;5114335;28;20020;-51
2022/07/20 05:31:56;;;;;;;9.80;2.20;;;;;;;27.05;42.00;101479.31;5114477;28;20470;-49
2022/07/20 05:34:24;;;;;;;13.52;1.95;;;;;;;27.09;42.03;101486.38;5115391;28;20362;-57
2022/07/20 05:36:53;;;;;;;7.80;2.53;;;;;;;27.07;42.07;101487.22;5096855;28;20028;-46
2022/07/20 05:39:20;;;;;;;8.10;2.70;;;;;;;27.08;42.02;101486.34;5115029;28;20063;-45
2022/07/20 05:41:49;;;;;;;7.82;1.58;;;;;;;27.14;42.07;101486.41;5114702;28;20032;-46
2022/07/20 05:44:17;;;;;;;4.93;1.80;;;;;;;27.24;42.19;101498.78;5114834;28;20129;-45
2022/07/20 05:46:45;;;;;;;5.72;1.83;;;;;;;27.22;42.25;101489.09;5114928;28;20031;-55
2022/07/20 05:49:13;;;;;;;8.68;1.95;;;;;;;27.03;42.78;101486.31;5096417;28;20081;-55
2022/07/20 05:51:41;;;;;;;6.82;1.45;;;;;;;27.04;42.81;101498.63;5114628;28;20032;-45
2022/07/20 05:54:10;;;;;;;5.57;1.92;;;;;;;27.13;42.54;101501.34;5114490;28;20106;-56
2022/07/20 05:56:38;;;;;;;7.45;2.08;;;;;;;27.07;42.81;101493.38;5114666;28;20031;-52
2022/07/20 05:59:07;;;;;;;4.03;1.63;;;;;;;27.15;42.53;101502.22;5114696;28;20030;-47
2022/07/20 06:01:35;;;;;;;8.25;1.92;;;;;;;27.20;42.46;101496.09;5114030;28;20051;-50
2022/07/20 06:04:04;;;;;;;8.40;2.05;;;;;;;27.21;43.15;101503.13;5114243;28;20107;-45
2022/07/20 06:06:33;;;;;;;6.18;2.15;;;;;;;27.26;42.92;101511.97;5114840;28;20020;-54
2022/07/20 06:09:01;;;;;;;6.93;2.03;;;;;;;27.18;43.24;101505.75;5114411;28;20034;-49
2022/07/20 06:11:30;;;;;;;9.27;1.95;;;;;;;27.17;43.08;101515.41;5096223;28;20118;-42
2022/07/20 06:13:58;;;;;;;5.85;1.75;;;;;;;27.32;42.64;101519.91;5113841;28;20028;-42
2022/07/20 06:16:27;;;;;;;7.00;2.17;;;;;;;27.23;43.05;101523.34;5113752;28;20359;-48
2022/07/20 06:18:55;;;;;;;6.72;1.95;;;;;;;27.19;42.95;101529.47;5114428;28;20027;-53
2022/07/20 06:21:24;;;;;;;6.07;1.90;;;;;;;27.14;43.25;101523.28;5095875;28;20375;-50
2022/07/20 06:23:52;;;;;;;9.18;2.00;;;;;;;27.23;43.22;101527.75;5114050;28;20023;-43
2022/07/20 06:26:23;;;;;;;9.27;2.42;;;;;;;27.08;43.69;101533.75;5114071;28;20374;-43
2022/07/20 06:28:51;;;;;;;5.80;1.75;;;;;;;26.99;43.58;101524.00;5114220;28;20051;-43
2022/07/20 06:31:20;;;;;;;16.63;2.72;;;;;;;27.15;43.44;101539.09;5079187;28;20459;-50
2022/07/20 06:33:48;;;;;;;8.55;1.92;;;;;;;27.27;42.94;101537.44;5114025;28;20110;-43
2022/07/20 06:36:18;;;;;;;7.15;2.33;;;;;;;27.31;43.21;101544.47;5095120;28;20033;-54
2022/07/20 06:38:47;;;;;;;8.88;2.60;;;;;;;27.13;43.94;101538.22;5113774;28;20020;-43
2022/07/20 06:41:15;;;;;;;5.72;2.40;;;;;;;27.17;44.05;101544.38;5113706;28;20024;-48
2022/07/20 06:43:44;;;;;;;7.18;2.50;;;;;;;27.18;43.75;101540.88;5095438;28;20561;-43
2022/07/20 06:46:13;;;;;;;9.20;3.03;;;;;;;27.03;43.97;101532.84;5113948;28;20105;-49
2022/07/20 06:48:41;;;;;;;7.30;3.00;;;;;;;26.84;44.36;101527.41;5113884;28;20470;-44
2022/07/20 06:51:10;;;;;;;10.80;3.30;;;;;;;26.86;44.81;101548.47;5113757;28;20085;-47
2022/07/20 06:53:38;;;;;;;11.80;3.80;;;;;;;26.74;44.85;101549.19;5114049;28;20055;-49
2022/07/20 06:56:07;;;;;;;10.68;3.33;;;;;;;26.72;44.99;101557.06;5113165;28;20431;-43
2022/07/20 06:58:35;;;;;;;12.18;3.88;;;;;;;26.76;44.60;101542.19;5113424;28;20462;-47
2022/07/20 07:01:04;;;;;;;12.50;3.20;;;;;;;26.61;44.91;101532.41;5113599;28;20055;-43
2022/07/20 07:03:35;;;;;;;11.02;3.20;;;;;;;26.62;45.00;101557.84;5113408;28;20071;-43
2022/07/20 07:06:04;;;;;;;12.15;4.28;;;;;;;26.46;45.42;101557.69;5113649;28;20028;-45
2022/07/20 07:08:33;;;;;;;12.45;3.92;;;;;;;26.57;45.10;101563.03;5113653;28;20119;-43
2022/07/20 07:11:02;;;;;;;8.75;3.47;;;;;;;26.52;45.20;101567.38;5113184;28;20047;-42
2022/07/20 07:13:30;;;;;;;7.22;3.25;;;;;;;26.51;44.95;101563.84;5095256;28;20042;-43
2022/07/20 07:15:58;;;;;;;14.65;4.95;;;;;;;26.63;44.76;101575.41;5113537;28;20023;-43
2022/07/20 07:18:27;;;;;;;9.63;3.28;;;;;;;26.54;44.81;101566.53;5095065;28;20104;-43
2022/07/20 07:20:55;;;;;;;16.33;4.00;;;;;;;26.51;44.67;101578.78;5113769;28;20063;-45
2022/07/20 07:23:24;;;;;;;11.45;3.65;;;;;;;26.51;44.93;101576.16;5078429;28;20027;-43
2022/07/20 07:25:52;;;;;;;13.15;4.22;;;;;;;26.50;45.02;101587.53;5113591;28;20028;-46
2022/07/20 07:28:21;;;;;;;10.18;3.20;;;;;;;26.57;44.89;101580.59;5095475;28;20405;-43
2022/07/20 07:30:50;;;;;;;14.10;4.15;;;;;;;26.58;44.62;101577.09;5095525;28;20112;-43
2022/07/20 07:33:25;;;;;;;10.57;3.50;;;;;;;26.55;45.31;101585.84;5095570;28;20050;-43
2022/07/20 07:35:55;;;;;;;10.43;3.80;;;;;;;26.42;45.35;101584.81;5113665;28;20026;-43
2022/07/20 07:38:23;;;;;;;14.77;3.80;;;;;;;26.34;45.39;101595.22;5095703;28;20067;-44
2022/07/20 07:40:52;;;;;;;12.48;3.40;;;;;;;26.37;45.49;101586.47;5113227;28;20371;-42
2022/07/20 07:43:21;;;;;;;12.27;3.38;;;;;;;26.42;45.43;101590.06;5113425;28;20036;-47
2022/07/20 07:45:49;;;;;;;9.73;3.33;;;;;;;26.52;45.36;101586.69;5095538;28;20019;-43
2022/07/20 07:48:18;;;;;;;14.43;3.55;;;;;;;26.42;45.40;101587.44;5094995;28;20400;-44
2022/07/20 07:50:46;;;;;;;11.90;4.25;;;;;;;26.15;46.16;101599.34;5113152;28;20458;-47
2022/07/20 07:53:14;;;;;;;7.93;3.50;;;;;;;26.16;45.84;101608.13;5095028;28;20410;-44
2022/07/20 07:55:43;;;;;;;9.40;3.65;;;;;;;26.16;46.05;101602.88;5099095;28;20020;-42
2022/07/20 07:58:12;;;;;;;9.90;3.75;;;;;;;26.18;45.84;101601.16;5098421;28;20535;-45
2022/07/20 08:00:41;;;;;;;9.40;3.13;;;;;;;26.14;45.66;101613.38;5116462;28;20047;-42
2022/07/20 08:03:10;;;;;;;9.40;2.67;;;;;;;26.03;45.89;101589.53;5117038;28;20034;-43
2022/07/20 08:05:39;;;;;;;11.57;3.05;;;;;;;26.10;45.92;101622.03;5116557;28;20024;-43
2022/07/20 08:08:09;;;;;;;13.15;3.75;;;;;;;25.95;46.00;101630.59;5116737;28;20026;-45
2022/07/20 08:10:39;;;;;;;8.63;2.97;;;;;;;26.02;46.28;101628.94;5081742;28;20031;-45
2022/07/20 08:13:08;;;;;;;9.38;2.95;;;;;;;26.13;45.53;101621.22;5116749;28;20112;-47
2022/07/20 08:15:36;;;;;;;9.80;3.17;;;;;;;26.18;45.42;101620.44;5098849;28;20054;-48
2022/07/20 08:18:07;;;;;;;8.73;2.72;;;;;;;26.07;45.95;101633.38;5116627;28;20020;-43
2022/07/20 08:20:36;;;;;;;16.00;2.95;;;;;;;25.96;46.30;101627.09;5097857;28;20081;-46
2022/07/20 08:23:04;;;;;;;10.77;3.28;;;;;;;25.75;47.12;101625.91;5116654;28;20486;-42
2022/07/20 08:25:33;;;;;;;8.48;3.00;;;;;;;25.59;47.19;101637.91;5116452;28;20111;-44
2022/07/20 08:28:21;;;;;;;9.55;2.95;;;;;;;25.94;46.27;101634.97;5114504;28;20030;-54
2022/07/20 08:30:50;;;;;;;14.32;3.33;;;;;;;25.93;46.24;101630.56;5087378;28;20068;-53
2022/07/20 08:33:18;;;;;;;11.38;2.75;;;;;;;26.04;45.85;101629.84;5104497;28;20099;-50
2022/07/20 08:35:45;;;;;;;8.93;2.58;;;;;;;26.13;45.75;101635.28;5087371;28;20408;-52
2022/07/20 08:38:13;;;;;;;7.95;2.33;;;;;;;25.95;45.97;101627.94;5084487;28;20126;-54
2022/07/20 08:40:42;;;;;;;11.88;3.08;;;;;;;25.99;45.83;101642.91;5085140;28;20032;-54
2022/07/20 08:43:10;;;;;;;13.43;3.30;;;;;;;25.98;46.34;101633.25;5085337;28;20080;-48
2022/07/20 08:45:39;;;;;;;11.35;3.17;;;;;;;25.90;46.38;101635.78;5104339;28;20032;-55
2022/07/20 08:48:10;;;;;;;8.23;2.92;;;;;;;25.73;46.20;101610.97;5086164;28;20036;-51
2022/07/20 08:50:38;;;;;;;15.00;3.47;;;;;;;25.91;46.16;101642.81;5104817;28;20088;-52
2022/07/20 08:53:07;;;;;;;11.43;3.22;;;;;;;25.84;46.71;101645.31;5104085;28;20038;-55
2022/07/20 08:55:34;;;;;;;11.93;3.28;;;;;;;25.68;47.17;101645.06;5085597;28;20031;-52
2022/07/20 08:58:02;;;;;;;10.15;3.22;;;;;;;25.66;46.98;101640.63;5102877;28;20032;-43
2022/07/20 09:00:30;;;;;;;18.90;4.60;;;;;;;25.70;47.15;101642.44;5111057;28;20055;-47
2022/07/20 09:03:02;;;;;;;11.48;2.80;;;;;;;25.68;47.30;101650.31;5116183;28;20020;-44
2022/07/20 09:05:32;;;;;;;8.45;2.88;;;;;;;25.78;47.10;101649.59;5115599;28;20069;-42
2022/07/20 09:08:01;;;;;;;7.35;2.35;;;;;;;25.91;46.62;101642.81;5115353;28;20459;-43
2022/07/20 09:10:32;;;;;;;10.65;3.63;;;;;;;25.96;46.87;101647.25;5115253;28;20057;-48
2022/07/20 09:13:13;;;;;;;12.77;3.72;;;;;;;26.06;46.42;101644.75;5115221;28;20447;-43
2022/07/20 09:15:43;;;;;;;12.13;3.20;;;;;;;26.06;46.26;101641.25;5097529;28;20435;-45
2022/07/20 09:18:15;;;;;;;6.70;2.42;;;;;;;26.00;46.51;101646.41;5115156;28;20034;-51
2022/07/20 09:20:45;;;;;;;8.02;2.47;;;;;;;26.02;46.62;101650.84;5115249;28;20055;-51
2022/07/20 09:23:20;;;;;;;9.70;2.60;;;;;;;26.08;46.35;101656.19;5115128;28;20382;-43
2022/07/20 09:25:58;;;;;;;8.38;2.75;;;;;;;26.00;46.71;101649.94;5115921;28;20413;-47
2022/07/20 09:28:46;;;;;;;6.95;2.22;;;;;;;26.02;46.31;101637.72;5114748;28;20447;-48
2022/07/20 09:31:21;;;;;;;6.63;2.05;;;;;;;25.86;46.98;101627.81;5115282;28;20032;-44
2022/07/20 09:34:18;;;;;;;6.72;1.90;;;;;;;26.06;46.24;101636.88;5096855;28;20030;-43
2022/07/20 09:36:47;;;;;;;8.40;2.63;;;;;;;25.98;46.80;101637.66;5110547;28;20036;-44
2022/07/20 09:39:21;;;;;;;5.93;2.13;;;;;;;26.06;46.52;101643.88;5115127;28;20024;-49
2022/07/20 09:41:56;;;;;;;9.23;1.95;;;;;;;26.12;46.53;101636.13;5115220;28;20027;-44
2022/07/20 09:44:26;;;;;;;7.25;2.05;;;;;;;26.13;46.64;101632.66;5096609;28;20447;-43
2022/07/20 09:46:55;;;;;;;4.53;1.58;;;;;;;26.08;46.73;101640.41;5114641;28;20031;-43
2022/07/20 09:49:32;;;;;;;5.00;1.90;;;;;;;26.04;47.00;101635.09;5115035;28;20099;-43
2022/07/20 09:52:03;;;;;;;9.50;2.17;;;;;;;26.03;47.01;101650.00;5097032;28;20024;-47
2022/07/20 09:54:31;;;;;;;4.68;1.10;;;;;;;26.14;46.50;101647.56;5114655;28;20027;-46
2022/07/20 09:57:02;;;;;;;3.47;1.25;;;;;;;26.23;46.50;101638.91;5096249;28;20041;-43
2022/07/20 09:59:30;;;;;;;3.03;0.82;;;;;;;26.27;46.23;101645.97;5096631;28;20023;-43
2022/07/20 10:01:59;;;;;;;2.90;1.17;;;;;;;26.32;46.19;101639.03;5114162;28;20055;-43
2022/07/20 10:04:28;;;;;;;1.50;0.65;;;;;;;26.29;46.30;101643.38;5096128;28;20019;-48
2022/07/20 10:06:56;;;;;;;2.78;0.90;;;;;;;26.27;46.63;101643.34;5096859;28;20028;-43
2022/07/20 10:09:25;;;;;;;2.83;0.70;;;;;;;26.13;47.23;101642.25;5114429;28;20080;-43
2022/07/20 10:11:53;;;;;;;2.10;0.70;;;;;;;26.06;47.25;101649.16;5079467;28;20058;-47
2022/07/20 10:14:23;;;;;;;1.05;0.43;;;;;;;25.94;47.50;101628.81;5114490;28;20531;-43
2022/07/20 10:16:54;;;;;;;1.95;0.50;;;;;;;26.14;47.29;101651.94;5095289;28;20028;-44
2022/07/20 10:19:42;;;;;;;2.60;0.30;;;;;;;26.29;46.75;101656.53;5096233;28;20077;-43
2022/07/20 10:22:11;;;;;;;2.03;0.60;;;;;;;26.33;46.73;101647.81;5095883;28;20035;-43
2022/07/20 10:24:42;;;;;;;1.48;0.40;;;;;;;26.41;46.43;101648.81;5114051;28;20020;-45
2022/07/20 10:27:13;;;;;;;1.25;0.40;;;;;;;26.58;46.05;101654.28;5096499;28;20024;-42
2022/07/20 10:29:44;;;;;;;5.65;0.50;;;;;;;26.51;46.52;101650.69;5113223;28;20027;-49
2022/07/20 10:32:17;;;;;;;0.85;0.40;;;;;;;26.65;46.37;101652.59;5114051;28;20363;-42
2022/07/20 10:34:47;;;;;;;0.68;0.43;;;;;;;26.59;46.49;101647.28;5113876;28;20076;-44
2022/07/20 10:37:30;;;;;;;2.60;0.65;;;;;;;26.50;46.75;101662.06;5113823;28;20027;-43
2022/07/20 10:39:59;;;;;;;1.52;0.55;;;;;;;26.58;46.44;101656.03;5113694;28;20086;-42
2022/07/20 10:42:31;;;;;;;1.55;0.40;;;;;;;26.36;47.01;101654.00;5095072;28;20027;-43
2022/07/20 10:45:19;;;;;;;0.90;0.35;;;;;;;26.45;47.02;101658.50;5113551;28;20031;-46
2022/07/20 10:47:57;;;;;;;1.02;0.40;;;;;;;26.58;46.72;101662.16;5113738;28;20038;-43
2022/07/20 10:50:35;;;;;;;0.95;0.50;;;;;;;26.66;46.51;101662.25;5113687;28;20059;-43
2022/07/20 10:53:13;;;;;;;0.20;0.20;;;;;;;26.73;46.49;101668.50;5113768;28;20028;-43
2022/07/20 10:55:43;;;;;;;1.17;0.50;;;;;;;26.71;46.15;101660.59;5095396;28;20024;-43
2022/07/20 10:58:15;;;;;;;0.68;0.32;;;;;;;26.81;46.00;101659.84;5113410;28;20445;-47
2022/07/20 11:00:46;;;;;;;1.25;0.60;;;;;;;26.90;45.85;101671.38;5095286;28;20493;-44
2022/07/20 11:03:22;;;;;;;0.73;0.40;;;;;;;26.89;46.17;101667.84;5114202;28;20460;-45
2022/07/20 11:06:03;;;;;;;0.60;0.40;;;;;;;26.75;46.68;101659.75;5113851;28;20034;-43
2022/07/20 11:08:32;;;;;;;0.77;0.30;;;;;;;26.85;46.34;101668.69;5113284;28;20028;-44
2022/07/20 11:11:02;;;;;;;1.15;0.50;;;;;;;26.88;46.27;101665.19;5113246;28;20028;-43
2022/07/20 11:13:31;;;;;;;0.95;0.50;;;;;;;26.95;45.81;101652.13;5113583;28;20371;-42
2022/07/20 11:16:02;;;;;;;22.48;2.92;;;;;;;26.87;45.84;101634.47;5113364;28;20080;-43
2022/07/20 11:18:33;;;;;;;24.85;2.75;;;;;;;26.94;46.18;101671.41;5113447;28;20110;-43
2022/07/20 11:21:05;;;;;;;16.33;2.08;;;;;;;26.98;46.00;101670.59;5095277;28;20062;-42
2022/07/20 11:23:46;;;;;;;11.68;1.52;;;;;;;26.90;46.16;101668.75;5113453;28;20106;-52
2022/07/20 11:26:18;;;;;;;5.45;1.23;;;;;;;26.77;46.92;101679.09;5095443;28;20092;-43
2022/07/20 11:28:49;;;;;;;4.43;1.02;;;;;;;26.91;46.67;101696.84;5116728;28;20027;-43
2022/07/20 11:31:20;;;;;;;2.28;1.10;;;;;;;26.82;46.82;101695.84;5099522;28;20450;-47
2022/07/20 11:33:50;;;;;;;2.50;1.20;;;;;;;26.83;46.59;101692.34;5117635;28;20020;-44
2022/07/20 11:36:22;;;;;;;1.45;0.77;;;;;;;26.91;46.30;101678.41;5117206;28;20068;-44
2022/07/20 11:38:54;;;;;;;2.38;1.02;;;;;;;26.94;46.47;101694.25;5099718;28;20478;-45